Pagrindinis puslapis
METAR-TAF:

METAR-TAF

Oro uostai :

Kuveitas, Kuveitas

platuma: 29-13N, ilguma: 047-59E, Aukštis: 55 m

Dabartinis oras

Ataskaita buvo paskelbta 15 minutes, ne 11:00 UTC
Ramus vėjas
Temperatūra 21°C
Drėgmė 60%
Slėgis 1013 hPa
Matomumas: 7000 m
Išsisklaidę debesys ne aukštis 4000 ft
Su prošvaistėmis ne aukštis 8000 ft
lietus

METAR: OKBK 071100Z 00000KT 7000 -RA SCT040 BKN080 21/13 Q1013 NOSIG

Laikas: 14:15 (11:15 UTC)

Prognozė

Ataskaita buvo paskelbta 6 valandos ir 30 minutes, ne 04:45 UTC
Prognozė galioja nuo 07 metu 06 UTC su 08 metu 12 UTC
Vėjas 12 kt iš Pietų/Pietryčių su gūsio iki 25 kt
Matomumas: 7000 m
Išsisklaidę debesys ne aukštis 4000 ft
Su prošvaistėmis ne aukštis 8000 ft
Laikinai
nuo 07 metu 06 UTC su 07 metu 12 UTC
Matomumas: 3000 m
Mažai debesys ne aukštis 3000 ft, Liūtiniai kamuoliniai debesys.

TAF: OKBK 070445Z 0706/0812 16012G25KT 7000 SCT040 BKN080 TEMPO 0706/0712 3000 TSRA/BLDU FEW030CB

Orai ataskaitas ir orų prognozės (METAR, TAF).

turimą stotys yra geltonos ir raudonos taškus žemėlapyje.

Perkelti pele per norėdami pamatyti stoties vardą.

Tada spustelėkite, norėdami matyti oro stebėjimo ir prognozės.

Norėdami pakeisti žemėlapį: spustelėkite ant žalios mygtukų su juodo kryžiaus žemyn,; žalią mygtuką su brūkšneliu, jei norite nutolinti; arba žalių rodyklių gretimoms žemėlapius.


METAR-TAF: